Time;durP1;ratioP1;P1;durP2;ratioP2;P2;SDS_P1;SDS_P2;PMS_P1;PMS_P2;Temp;Humidity;BMP_temperature;BMP_pressure;BME280_temperature;BME280_humidity;BME280_pressure;Samples;Min_cycle;Max_cycle;Signal;HPM_P1;HPM_P2
2023/01/17 05:31:36;;;;;;;;;23.25;21.50;;;;;-147.14;100.00;58812.66;6216242;22;46162;-59
2023/01/17 05:34:02;;;;;;;;;18.33;16.67;;;;;-147.14;100.00;58812.66;6244689;22;45305;-59
2023/01/17 05:36:27;;;;;;;;;4.00;4.00;;;;;-147.14;100.00;58812.66;6245697;22;52869;-59
2023/01/17 05:38:53;;;;;;;;;20.25;19.75;;;;;-147.14;100.00;58812.66;6245719;22;45285;-59
2023/01/17 05:41:18;;;;;;;;;22.25;17.50;;;;;-147.14;100.00;58812.66;6246741;22;45224;-59
2023/01/17 05:43:43;;;;;;;;;25.50;20.25;;;;;-147.14;100.00;58812.66;6247263;22;45212;-59
2023/01/17 05:46:09;;;;;;;;;24.50;20.00;;;;;-147.14;100.00;58812.66;6246067;22;67010;-59
2023/01/17 05:48:34;;;;;;;;;25.75;23.25;;;;;-147.14;100.00;58812.66;6246120;22;45522;-59
2023/01/17 05:51:00;;;;;;;;;23.50;19.00;;;;;-147.14;100.00;58812.66;6245546;22;62174;-59
2023/01/17 05:53:25;;;;;;;;;20.25;18.75;;;;;-147.14;100.00;58812.66;6246510;22;45449;-59
2023/01/17 05:55:51;;;;;;;;;28.00;21.25;;;;;-147.14;100.00;58812.66;6246184;22;63829;-59
2023/01/17 05:58:18;;;;;;;;;18.00;17.75;;;;;-147.14;100.00;58812.66;6246663;22;45285;-59
2023/01/17 06:00:44;;;;;;;;;23.00;22.25;;;;;-147.14;100.00;58812.66;6247086;22;45582;-58
2023/01/17 06:03:10;;;;;;;;;22.00;19.75;;;;;-147.14;100.00;58812.66;6246262;22;45375;-59
2023/01/17 06:05:36;;;;;;;;;28.75;21.50;;;;;-147.14;100.00;58812.66;6246448;22;46232;-59
2023/01/17 06:08:01;;;;;;;;;20.50;17.25;;;;;-147.14;100.00;58812.66;6245705;22;45594;-60
2023/01/17 06:10:27;;;;;;;;;20.50;19.00;;;;;-147.14;100.00;58812.66;6246100;22;61233;-59
2023/01/17 06:13:04;;;;;;;;;21.25;18.50;;;;;-147.14;100.00;58812.66;6246806;22;45472;-59
2023/01/17 06:15:29;;;;;;;;;23.00;20.25;;;;;-147.14;100.00;58812.66;6247159;22;45153;-59
2023/01/17 06:17:54;;;;;;;;;22.00;18.00;;;;;-147.14;100.00;58812.66;6245799;22;45296;-59
2023/01/17 06:20:20;;;;;;;;;19.50;19.50;;;;;-147.14;100.00;58812.66;6246316;22;58355;-59
2023/01/17 06:22:45;;;;;;;;;24.33;17.00;;;;;-147.14;100.00;58812.66;6246182;22;60773;-59
2023/01/17 06:25:10;;;;;;;;;18.75;12.00;;;;;-147.14;100.00;58812.66;6245292;22;66215;-59
2023/01/17 06:27:36;;;;;;;;;17.67;17.67;;;;;-147.14;100.00;58812.66;6246203;22;45303;-59
2023/01/17 06:30:01;;;;;;;;;23.33;21.00;;;;;-147.14;100.00;58812.66;6246217;22;45732;-59
2023/01/17 06:32:27;;;;;;;;;21.33;17.00;;;;;-147.14;100.00;58812.66;6214073;22;45408;-59
2023/01/17 06:34:52;;;;;;;;;27.00;22.00;;;;;-147.14;100.00;58812.66;6242481;22;45947;-59
2023/01/17 06:37:17;;;;;;;;;22.67;20.33;;;;;-147.14;100.00;58812.66;6244222;22;63331;-59
2023/01/17 06:39:42;;;;;;;;;15.25;15.25;;;;;-147.14;100.00;58812.66;6241470;22;45360;-59
2023/01/17 06:42:08;;;;;;;;;15.67;14.67;;;;;-147.14;100.00;58812.66;6245652;22;45241;-59
2023/01/17 06:44:33;;;;;;;;;24.75;21.50;;;;;-147.14;100.00;58812.66;6244730;22;46072;-59
2023/01/17 06:46:59;;;;;;;;;29.50;24.00;;;;;-147.14;100.00;58812.66;6243179;22;63454;-59
2023/01/17 06:49:24;;;;;;;;;24.50;24.00;;;;;-147.14;100.00;58812.66;6245495;22;45339;-59
2023/01/17 06:51:49;;;;;;;;;22.67;19.00;;;;;-147.14;100.00;58812.66;6244455;22;61631;-59
2023/01/17 06:54:15;;;;;;;;;22.75;20.50;;;;;-147.14;100.00;58812.66;6243720;22;46121;-58
2023/01/17 06:56:40;;;;;;;;;23.50;19.25;;;;;-147.14;100.00;58812.66;6244663;22;45374;-60
2023/01/17 06:59:05;;;;;;;;;23.00;19.00;;;;;-147.14;100.00;58812.66;6244328;22;58637;-60
2023/01/17 07:01:31;;;;;;;;;25.75;23.75;;;;;-147.14;100.00;58812.66;6244675;22;57553;-60
2023/01/17 07:03:56;;;;;;;;;21.00;16.75;;;;;-147.14;100.00;58812.66;6243992;22;45962;-60
2023/01/17 07:06:27;;;;;;;;;19.25;15.75;;;;;-147.14;100.00;58812.66;6244406;22;63968;-60
2023/01/17 07:08:54;;;;;;;;;21.50;13.50;;;;;-147.14;100.00;58812.66;6218377;22;45307;-60
2023/01/17 07:11:19;;;;;;;;;18.75;18.25;;;;;-147.14;100.00;58812.66;6243868;22;45363;-60
2023/01/17 07:13:44;;;;;;;;;25.50;19.00;;;;;-147.14;100.00;58812.66;6243275;22;69338;-59
2023/01/17 07:16:10;;;;;;;;;22.00;17.50;;;;;-147.14;100.00;58812.66;6244770;22;45369;-60
2023/01/17 07:18:35;;;;;;;;;25.00;20.75;;;;;-147.14;100.00;58812.66;6244054;22;61553;-59
2023/01/17 07:21:00;;;;;;;;;24.25;19.00;;;;;-147.14;100.00;58812.66;6244264;22;45630;-57
2023/01/17 07:23:26;;;;;;;;;30.50;24.00;;;;;-147.14;100.00;58812.66;6243040;22;65643;-58
2023/01/17 07:25:51;;;;;;;;;24.75;22.25;;;;;-147.14;100.00;58812.66;6240843;22;60926;-57
2023/01/17 07:28:17;;;;;;;;;23.00;21.00;;;;;-147.14;100.00;58812.66;6244269;22;45359;-58
2023/01/17 07:30:42;;;;;;;;;21.50;20.00;;;;;-147.14;100.00;58812.66;6244664;22;45303;-57
2023/01/17 07:33:08;;;;;;;;;22.25;19.75;;;;;-147.14;100.00;58812.66;6243032;22;63649;-57
2023/01/17 07:35:33;;;;;;;;;30.25;24.00;;;;;-147.14;100.00;58812.66;6244609;22;45307;-57
2023/01/17 07:37:59;;;;;;;;;24.25;18.50;;;;;-147.14;100.00;58812.66;6217151;22;45596;-58
2023/01/17 07:40:24;;;;;;;;;24.25;18.75;;;;;-147.14;100.00;58812.66;6245424;22;45249;-58
2023/01/17 07:42:49;;;;;;;;;25.25;21.50;;;;;-147.14;100.00;58812.66;6244616;22;46027;-57
2023/01/17 07:45:15;;;;;;;;;27.00;22.25;;;;;-147.14;100.00;58812.66;6244244;22;45252;-58
2023/01/17 07:47:41;;;;;;;;;23.50;19.75;;;;;-147.14;100.00;58812.66;6243822;22;45350;-58
2023/01/17 07:50:07;;;;;;;;;34.75;23.75;;;;;-147.14;100.00;58812.66;6243124;22;45277;-56
2023/01/17 07:52:32;;;;;;;;;25.75;21.50;;;;;-147.14;100.00;58812.66;6244672;22;46173;-56
2023/01/17 07:54:58;;;;;;;;;24.00;17.33;;;;;-147.14;100.00;58812.66;6244341;22;45352;-57
2023/01/17 07:57:23;;;;;;;;;20.50;19.25;;;;;-147.14;100.00;58812.66;6244962;22;47079;-56
2023/01/17 07:59:49;;;;;;;;;17.33;17.33;;;;;-147.14;100.00;58812.66;6243945;22;62898;-57
2023/01/17 08:02:17;;;;;;;;;23.50;20.25;;;;;-147.14;100.00;58812.66;6244628;22;46990;-56
2023/01/17 08:04:42;;;;;;;;;20.67;19.00;;;;;-147.14;100.00;58812.66;6218448;22;45302;-56
2023/01/17 08:07:07;;;;;;;;;19.25;18.00;;;;;-147.14;100.00;58812.66;6245925;22;45503;-58
2023/01/17 08:09:33;;;;;;;;;18.33;18.33;;;;;-147.14;100.00;58812.66;6244858;22;45438;-59
2023/01/17 08:11:58;;;;;;;;;20.25;18.50;;;;;-147.14;100.00;58812.66;6244334;22;65503;-58
2023/01/17 08:14:23;;;;;;;;;21.75;18.00;;;;;-147.14;100.00;58812.66;6218162;22;55687;-58
2023/01/17 08:16:49;;;;;;;;;21.50;19.00;;;;;-147.14;100.00;58812.66;6242113;22;45520;-59
2023/01/17 08:19:15;;;;;;;;;28.25;28.25;;;;;-147.14;100.00;58812.66;6243123;22;45211;-58
2023/01/17 08:21:41;;;;;;;;;36.00;24.25;;;;;-147.14;100.00;58812.66;6244214;22;46114;-58
2023/01/17 08:24:11;;;;;;;;;31.50;28.00;;;;;-147.14;100.00;58812.66;6243029;22;63278;-55
2023/01/17 08:26:36;;;;;;;;;28.25;23.50;;;;;-147.14;100.00;58812.66;6244530;22;45351;-57
2023/01/17 08:29:01;;;;;;;;;26.75;23.25;;;;;-147.14;100.00;58812.66;6243424;22;63043;-58
2023/01/17 08:31:29;;;;;;;;;29.50;22.50;;;;;-147.14;100.00;58812.66;6243737;22;45237;-58
2023/01/17 08:33:55;;;;;;;;;32.50;28.75;;;;;-147.14;100.00;58812.66;6243297;22;45249;-57
2023/01/17 08:36:20;;;;;;;;;37.25;28.50;;;;;-147.14;100.00;58812.66;6217381;22;45356;-57
2023/01/17 08:38:46;;;;;;;;;43.50;30.50;;;;;-147.14;100.00;58812.66;6244323;22;46174;-58
2023/01/17 08:41:11;;;;;;;;;30.00;26.00;;;;;-147.14;100.00;58812.66;6244066;22;46803;-57
2023/01/17 08:43:37;;;;;;;;;38.75;29.25;;;;;-147.14;100.00;58812.66;6243968;22;45381;-58
2023/01/17 08:46:04;;;;;;;;;32.25;25.75;;;;;-147.14;100.00;58812.66;6243769;22;60218;-58
2023/01/17 08:48:29;;;;;;;;;31.25;26.25;;;;;-147.14;100.00;58812.66;6241528;22;45367;-57
2023/01/17 08:53:40;;;;;;;;;38.25;27.00;;;;;-147.14;100.00;58812.66;6169465;23;73361;-57
2023/01/17 08:56:06;;;;;;;;;31.25;26.75;;;;;-147.14;100.00;58812.66;6177804;23;45440;-55
2023/01/17 08:58:32;;;;;;;;;25.50;22.75;;;;;-147.14;100.00;58812.66;6179422;23;45411;-56
2023/01/17 09:01:04;;;;;;;;;30.00;23.00;;;;;-147.14;100.00;58812.66;6178992;23;47121;-57
2023/01/17 09:03:31;;;;;;;;;34.25;28.00;;;;;-147.14;100.00;58812.66;6179675;23;45385;-55
2023/01/17 09:06:04;;;;;;;;;24.50;22.00;;;;;-147.14;100.00;58812.66;6180346;23;45310;-58
2023/01/17 09:08:29;;;;;;;;;26.25;22.00;;;;;-147.14;100.00;58812.66;6180329;23;45242;-57
2023/01/17 09:10:55;;;;;;;;;24.00;23.25;;;;;-147.14;100.00;58812.66;6179718;23;46304;-58
2023/01/17 09:13:20;;;;;;;;;35.50;24.50;;;;;-147.14;100.00;58812.66;6181979;23;45282;-57
2023/01/17 09:15:45;;;;;;;;;28.50;22.00;;;;;-147.14;100.00;58812.66;6182028;23;55946;-60
2023/01/17 09:18:11;;;;;;;;;27.25;22.00;;;;;-147.14;100.00;58812.66;6179079;23;62842;-58
2023/01/17 09:20:36;;;;;;;;;30.25;24.50;;;;;-147.14;100.00;58812.66;6182220;23;65915;-59
2023/01/17 09:23:02;;;;;;;;;19.25;19.00;;;;;-147.14;100.00;58812.66;6180622;23;64415;-58
2023/01/17 09:25:28;;;;;;;;;21.75;17.25;;;;;-147.14;100.00;58812.66;6235149;22;45209;-59
2023/01/17 09:27:53;;;;;;;;;34.50;27.75;;;;;-147.14;100.00;58812.66;6244821;22;57783;-59
2023/01/17 09:30:18;;;;;;;;;35.50;28.25;;;;;-147.14;100.00;58812.66;6245136;22;66840;-59
2023/01/17 09:32:50;;;;;;;;;30.50;23.75;;;;;-147.14;100.00;58812.66;6245792;22;45271;-58
2023/01/17 09:35:17;;;;;;;;;26.50;23.75;;;;;-147.14;100.00;58812.66;6193169;22;45240;-58
2023/01/17 09:37:42;;;;;;;;;31.50;25.75;;;;;-147.14;100.00;58812.66;6245978;22;45312;-58
2023/01/17 09:40:12;;;;;;;;;27.50;23.25;;;;;-147.14;100.00;58812.66;6244780;22;46550;-58
2023/01/17 09:42:39;;;;;;;;;25.25;23.00;;;;;-147.14;100.00;58812.66;6218645;22;45364;-59
2023/01/17 09:45:11;;;;;;;;;25.25;20.25;;;;;-147.14;100.00;58812.66;6218196;22;58183;-58
2023/01/17 09:47:41;;;;;;;;;27.25;24.25;;;;;-147.14;100.00;58812.66;6218968;22;45550;-59
2023/01/17 09:50:30;;;;;;;;;16.67;14.67;;;;;-147.14;100.00;58812.66;6218780;22;45252;-57
2023/01/17 09:53:02;;;;;;;;;23.50;17.50;;;;;-147.14;100.00;58812.66;6217980;22;45353;-58
2023/01/17 09:55:34;;;;;;;;;27.50;24.75;;;;;-147.14;100.00;58812.66;6246177;22;45234;-58
2023/01/17 09:58:19;;;;;;;;;26.33;19.67;;;;;-147.14;100.00;58812.66;6217670;22;45340;-58
2023/01/17 10:01:08;;;;;;;;;24.00;19.00;;;;;-147.14;100.00;58812.66;6246109;22;45996;-58
2023/01/17 10:03:37;;;;;;;;;18.67;16.33;;;;;-147.14;100.00;58812.66;6246003;22;45475;-58
2023/01/17 10:06:45;;;;;;;;;21.00;19.33;;;;;-147.14;100.00;58812.66;6245461;22;45482;-57
2023/01/17 10:09:23;;;;;;;;;27.00;23.00;;;;;-147.14;100.00;58812.66;6244251;22;45442;-58
2023/01/17 10:12:03;;;;;;;;;21.75;20.75;;;;;-147.14;100.00;58812.66;6245429;22;45257;-58
2023/01/17 10:14:41;;;;;;;;;22.33;17.33;;;;;-147.14;100.00;58812.66;6218545;22;45324;-58
2023/01/17 10:17:36;;;;;;;;;23.00;17.67;;;;;-147.14;100.00;58812.66;6245651;22;45663;-58
2023/01/17 10:20:13;;;;;;;;;20.33;20.33;;;;;-147.14;100.00;58812.66;6217392;22;45506;-58
2023/01/17 10:23:07;;;;;;;;;18.00;16.00;;;;;-147.14;100.00;58812.66;6217292;22;46321;-59
2023/01/17 10:25:42;;;;;;;;;20.33;16.67;;;;;-147.14;100.00;58812.66;6245052;22;45261;-59
2023/01/17 10:28:16;;;;;;;;;21.33;15.00;;;;;-147.14;100.00;58812.66;6245306;22;45344;-58
2023/01/17 10:31:05;;;;;;;;;19.00;19.00;;;;;-147.14;100.00;58812.66;6217709;22;45521;-58
2023/01/17 10:33:38;;;;;;;;;23.33;18.00;;;;;-147.14;100.00;58812.66;6218634;22;45233;-58
2023/01/17 10:36:14;;;;;;;;;15.67;15.67;;;;;-147.14;100.00;58812.66;6218741;22;45249;-58
2023/01/17 10:38:44;;;;;;;;;24.00;17.67;;;;;-147.14;100.00;58812.66;6245594;22;45208;-59
2023/01/17 10:41:14;;;;;;;;;27.00;15.67;;;;;-147.14;100.00;58812.66;6218521;22;45272;-58
2023/01/17 10:43:55;;;;;;;;;21.33;18.00;;;;;-147.14;100.00;58812.66;6245594;22;45284;-59
2023/01/17 10:46:42;;;;;;;;;22.33;16.67;;;;;-147.14;100.00;58812.66;6245976;22;45380;-57
2023/01/17 10:49:16;;;;;;;;;22.00;17.33;;;;;-147.14;100.00;58812.66;6219094;22;45319;-57
2023/01/17 10:52:08;;;;;;;;;21.00;14.33;;;;;-147.14;100.00;58812.66;6246422;22;44689;-61
2023/01/17 10:55:07;;;;;;;;;23.33;20.33;;;;;-147.14;100.00;58812.66;6195304;22;46172;-60
2023/01/17 10:57:44;;;;;;;;;26.67;19.67;;;;;-147.14;100.00;58812.66;6245312;22;45248;-60
2023/01/17 11:00:38;;;;;;;;;21.33;14.67;;;;;-147.14;100.00;58812.66;6245457;22;45242;-59
2023/01/17 11:03:04;;;;;;;;;23.00;16.33;;;;;-147.14;100.00;58812.66;6244816;22;45650;-60
2023/01/17 11:05:31;;;;;;;;;20.00;17.33;;;;;-147.14;100.00;58812.66;6218661;22;45284;-60
2023/01/17 11:08:00;;;;;;;;;21.33;14.00;;;;;-147.14;100.00;58812.66;6218215;22;45329;-60
2023/01/17 11:10:34;;;;;;;;;21.33;16.33;;;;;-147.14;100.00;58812.66;6245080;22;45264;-60
2023/01/17 11:12:59;;;;;;;;;19.00;14.00;;;;;-147.14;100.00;58812.66;6245019;22;45399;-61
2023/01/17 11:15:25;;;;;;;;;20.00;16.33;;;;;-147.14;100.00;58812.66;6245199;22;57557;-60
2023/01/17 11:18:02;;;;;;;;;15.33;14.33;;;;;-147.14;100.00;58812.66;6218834;22;45269;-59
2023/01/17 11:20:34;;;;;;;;;25.67;22.33;;;;;-147.14;100.00;58812.66;6246797;22;45575;-60
2023/01/17 11:23:07;;;;;;;;;17.00;15.67;;;;;-147.14;100.00;58812.66;6218199;22;45438;-62
2023/01/17 11:25:33;;;;;;;;;27.33;17.00;;;;;-147.14;100.00;58812.66;6217149;22;45264;-63
2023/01/17 11:28:02;;;;;;;;;19.00;16.00;;;;;-147.14;100.00;58812.66;6244668;22;45320;-56
2023/01/17 11:30:28;;;;;;;;;16.67;14.33;;;;;-147.14;100.00;58812.66;6217785;22;45479;-54
2023/01/17 11:33:05;;;;;;;;;16.33;15.33;;;;;-147.14;100.00;58812.66;6217267;22;45735;-54
2023/01/17 11:35:35;;;;;;;;;20.00;17.33;;;;;-147.14;100.00;58812.66;6244096;22;46323;-55
2023/01/17 11:38:01;;;;;;;;;16.33;14.67;;;;;-147.14;100.00;58812.66;6244492;22;45271;-60
2023/01/17 11:40:29;;;;;;;;;16.33;14.00;;;;;-147.14;100.00;58812.66;6244705;22;45830;-61
2023/01/17 11:43:03;;;;;;;;;19.33;18.67;;;;;-147.14;100.00;58812.66;6240029;22;45247;-63
2023/01/17 11:45:33;;;;;;;;;17.33;15.00;;;;;-147.14;100.00;58812.66;6244452;22;46002;-60
2023/01/17 11:48:07;;;;;;;;;16.67;16.00;;;;;-147.14;100.00;58812.66;6243633;22;45244;-58
2023/01/17 11:50:36;;;;;;;;;15.67;14.33;;;;;-147.14;100.00;58812.66;6245162;22;45278;-59
2023/01/17 11:53:27;;;;;;;;;23.00;17.33;;;;;-147.14;100.00;58812.66;6217175;22;45570;-59
2023/01/17 11:55:55;;;;;;;;;19.00;16.00;;;;;-147.14;100.00;58812.66;6235365;22;45244;-60
2023/01/17 11:58:22;;;;;;;;;19.00;16.33;;;;;-147.14;100.00;58812.66;6244788;22;45164;-57
2023/01/17 12:01:03;;;;;;;;;18.67;16.67;;;;;-147.14;100.00;58812.66;6217557;22;45327;-58
2023/01/17 12:04:06;;;;;;;;;20.33;15.67;;;;;-147.14;100.00;58812.66;6217129;22;45462;-57
2023/01/17 12:06:49;;;;;;;;;20.67;14.00;;;;;-147.14;100.00;58812.66;6244856;22;47204;-55
2023/01/17 12:09:27;;;;;;;;;16.67;14.33;;;;;-147.14;100.00;58812.66;6243510;22;45245;-57
2023/01/17 12:15:44;;;;;;;;;15.67;14.67;;;;;-147.14;100.00;58812.66;6221607;22;45359;-56
2023/01/17 12:18:15;;;;;;;;;16.00;12.33;;;;;-147.14;100.00;58812.66;6244265;22;45315;-55
2023/01/17 12:21:08;;;;;;;;;16.67;11.00;;;;;-147.14;100.00;58812.66;6245454;22;45462;-53
2023/01/17 12:23:42;;;;;;;;;20.00;11.67;;;;;-147.14;100.00;58812.66;6244717;22;45434;-57
2023/01/17 12:26:20;;;;;;;;;10.33;9.67;;;;;-147.14;100.00;58812.66;6244632;22;45577;-52
2023/01/17 12:29:21;;;;;;;;;10.33;10.33;;;;;-147.14;100.00;58812.66;6244415;22;46241;-60
2023/01/17 12:32:19;;;;;;;;;13.00;10.00;;;;;-147.14;100.00;58812.66;6209245;22;45370;-60
2023/01/17 12:35:16;;;;;;;;;14.67;11.00;;;;;-147.14;100.00;58812.66;6245462;22;45311;-51
2023/01/17 12:37:49;;;;;;;;;15.33;9.00;;;;;-147.14;100.00;58812.66;6202485;22;45604;-55
2023/01/17 12:40:22;;;;;;;;;14.00;11.00;;;;;-147.14;100.00;58812.66;6216788;22;46181;-55
2023/01/17 12:42:53;;;;;;;;;12.00;9.33;;;;;-147.14;100.00;58812.66;6217360;22;45401;-54
2023/01/17 12:45:32;;;;;;;;;10.67;9.67;;;;;-147.14;100.00;58812.66;6217863;22;45335;-51
2023/01/17 12:48:02;;;;;;;;;17.33;11.00;;;;;-147.14;100.00;58812.66;6217895;22;45304;-52
2023/01/17 12:50:37;;;;;;;;;13.67;10.33;;;;;-147.14;100.00;58812.66;6219277;22;46035;-60
2023/01/17 12:53:11;;;;;;;;;15.33;10.33;;;;;-147.14;100.00;58812.66;6244317;22;45307;-59
2023/01/17 12:55:50;;;;;;;;;10.67;9.00;;;;;-147.14;100.00;58812.66;6245777;22;45395;-59
2023/01/17 12:58:28;;;;;;;;;12.33;12.33;;;;;-147.14;100.00;58812.66;6246165;22;45386;-59
2023/01/17 13:01:16;;;;;;;;;13.00;8.67;;;;;-147.14;100.00;58812.66;6245081;22;46129;-59
2023/01/17 13:04:02;;;;;;;;;14.00;10.00;;;;;-147.14;100.00;58812.66;6218962;22;45297;-57
2023/01/17 13:06:35;;;;;;;;;17.33;12.33;;;;;-147.14;100.00;58812.66;6219679;22;45285;-59
2023/01/17 13:09:02;;;;;;;;;13.33;12.67;;;;;-147.14;100.00;58812.66;6217722;22;45431;-58
2023/01/17 13:11:42;;;;;;;;;12.33;11.00;;;;;-147.14;100.00;58812.66;6245031;22;46370;-58
2023/01/17 13:14:09;;;;;;;;;14.33;10.67;;;;;-147.14;100.00;58812.66;6218750;22;45373;-59
2023/01/17 13:16:39;;;;;;;;;13.00;11.33;;;;;-147.14;100.00;58812.66;6246163;22;45332;-59
2023/01/17 13:19:17;;;;;;;;;16.67;15.00;;;;;-147.14;100.00;58812.66;6218588;22;45419;-58
2023/01/17 13:21:44;;;;;;;;;13.33;11.00;;;;;-147.14;100.00;58812.66;6218217;22;47020;-58
2023/01/17 13:24:32;;;;;;;;;12.00;9.67;;;;;-147.14;100.00;58812.66;6218073;22;45285;-58
2023/01/17 13:27:10;;;;;;;;;19.00;11.67;;;;;-147.14;100.00;58812.66;6218274;22;45245;-58
2023/01/17 13:29:54;;;;;;;;;14.00;11.33;;;;;-147.14;100.00;58812.66;6218458;22;45439;-58
2023/01/17 13:32:44;;;;;;;;;13.00;10.00;;;;;-147.14;100.00;58812.66;6245308;22;46132;-58
2023/01/17 13:35:25;;;;;;;;;15.67;12.00;;;;;-147.14;100.00;58812.66;6245513;22;45624;-57
2023/01/17 13:38:09;;;;;;;;;10.67;10.67;;;;;-147.14;100.00;58812.66;6218561;22;45373;-56
2023/01/17 13:41:15;;;;;;;;;12.67;11.33;;;;;-147.14;100.00;58812.66;6245919;22;45395;-58
2023/01/17 13:46:29;;;;;;;;;14.00;11.67;;;;;-147.14;100.00;58812.66;6223263;22;45888;-59
2023/01/17 13:49:41;;;;;;;;;13.67;10.67;;;;;-147.14;100.00;58812.66;6245577;22;45508;-57
2023/01/17 13:52:18;;;;;;;;;18.67;13.00;;;;;-147.14;100.00;58812.66;6239159;22;45546;-58
2023/01/17 13:54:46;;;;;;;;;15.33;11.67;;;;;-147.14;100.00;58812.66;6245631;22;46248;-58
2023/01/17 13:57:28;;;;;;;;;19.00;16.00;;;;;-147.14;100.00;58812.66;6245282;22;45344;-59
2023/01/17 13:59:58;;;;;;;;;19.00;13.00;;;;;-147.14;100.00;58812.66;6244384;22;45284;-58
2023/01/17 14:02:35;;;;;;;;;10.33;10.33;;;;;-147.14;100.00;58812.66;6245352;22;45391;-58
2023/01/17 14:05:08;;;;;;;;;12.67;8.00;;;;;-147.14;100.00;58812.66;6244874;22;45828;-58
2023/01/17 14:07:37;;;;;;;;;14.00;9.00;;;;;-147.14;100.00;58812.66;6243768;22;45280;-59
2023/01/17 14:10:39;;;;;;;;;13.00;10.00;;;;;-147.14;100.00;58812.66;6218245;22;45350;-59
2023/01/17 14:13:34;;;;;;;;;17.67;13.67;;;;;-147.14;100.00;58812.66;6232912;22;45680;-58
2023/01/17 14:16:00;;;;;;;;;10.00;9.00;;;;;-147.14;100.00;58812.66;6244836;22;46123;-59
2023/01/17 14:18:33;;;;;;;;;10.00;8.33;;;;;-147.14;100.00;58812.66;6245119;22;45708;-58
2023/01/17 14:21:10;;;;;;;;;9.00;9.00;;;;;-147.14;100.00;58812.66;6192951;22;45346;-58
2023/01/17 14:23:45;;;;;;;;;15.00;11.00;;;;;-147.14;100.00;58812.66;6218441;22;45329;-58
2023/01/17 14:26:21;;;;;;;;;11.67;9.00;;;;;-147.14;100.00;58812.66;6217469;22;45978;-58
2023/01/17 14:28:46;;;;;;;;;12.67;9.33;;;;;-147.14;100.00;58812.66;6217937;22;45364;-58
2023/01/17 14:31:14;;;;;;;;;12.00;10.67;;;;;-147.14;100.00;58812.66;6242017;22;59467;-58
2023/01/17 14:33:40;;;;;;;;;13.00;9.00;;;;;-147.14;100.00;58812.66;6215402;22;60875;-59
2023/01/17 14:36:14;;;;;;;;;11.33;8.00;;;;;-147.14;100.00;58812.66;6245068;22;46005;-59
2023/01/17 14:38:43;;;;;;;;;10.67;9.33;;;;;-147.14;100.00;58812.66;6244782;22;45430;-59
2023/01/17 14:41:32;;;;;;;;;11.00;10.00;;;;;-147.14;100.00;58812.66;6244703;22;45296;-59
2023/01/17 14:43:59;;;;;;;;;12.67;11.00;;;;;-147.14;100.00;58812.66;6244029;22;45452;-60
2023/01/17 14:46:31;;;;;;;;;14.67;13.00;;;;;-147.14;100.00;58812.66;6244605;22;46066;-59
2023/01/17 14:49:01;;;;;;;;;15.33;12.33;;;;;-147.14;100.00;58812.66;6217642;22;45418;-59
2023/01/17 14:51:27;;;;;;;;;15.67;14.00;;;;;-147.14;100.00;58812.66;6244806;22;45607;-59
2023/01/17 14:54:05;;;;;;;;;9.33;8.67;;;;;-147.14;100.00;58812.66;6243879;22;45526;-59
2023/01/17 14:56:31;;;;;;;;;12.67;9.67;;;;;-147.14;100.00;58812.66;6245311;22;46322;-61
2023/01/17 14:59:09;;;;;;;;;9.00;9.00;;;;;-147.14;100.00;58812.66;6216286;22;45402;-60
2023/01/17 15:01:35;;;;;;;;;11.33;7.67;;;;;-147.14;100.00;58812.66;6242636;22;45418;-59
2023/01/17 15:04:01;;;;;;;;;14.33;9.00;;;;;-147.14;100.00;58812.66;6239436;22;45348;-59
2023/01/17 15:06:39;;;;;;;;;11.33;10.00;;;;;-147.14;100.00;58812.66;6217453;22;46169;-61
2023/01/17 15:09:28;;;;;;;;;13.67;9.00;;;;;-147.14;100.00;58812.66;6216466;22;45727;-58
2023/01/17 15:11:56;;;;;;;;;10.00;7.33;;;;;-147.14;100.00;58812.66;6236525;22;45324;-58
2023/01/17 15:14:31;;;;;;;;;9.00;8.33;;;;;-147.14;100.00;58812.66;6244394;22;45347;-56
2023/01/17 15:16:56;;;;;;;;;10.67;8.33;;;;;-147.14;100.00;58812.66;6242674;22;45467;-59
2023/01/17 15:19:22;;;;;;;;;9.33;9.00;;;;;-147.14;100.00;58812.66;6216429;22;52944;-57
2023/01/17 15:21:50;;;;;;;;;14.00;10.00;;;;;-147.14;100.00;58812.66;6244531;22;45415;-57
2023/01/17 15:24:25;;;;;;;;;10.67;10.00;;;;;-147.14;100.00;58812.66;6217634;22;45257;-57
2023/01/17 15:26:50;;;;;;;;;16.33;8.67;;;;;-147.14;100.00;58812.66;6217634;22;45376;-58
2023/01/17 15:29:27;;;;;;;;;17.33;9.00;;;;;-147.14;100.00;58812.66;6215522;22;45360;-58
2023/01/17 15:31:57;;;;;;;;;10.33;9.00;;;;;-147.14;100.00;58812.66;6216322;22;45392;-61
2023/01/17 15:34:25;;;;;;;;;12.67;12.33;;;;;-147.14;100.00;58812.66;6245408;22;45305;-59
2023/01/17 15:36:51;;;;;;;;;13.00;11.67;;;;;-147.14;100.00;58812.66;6244316;22;45687;-58
2023/01/17 15:39:22;;;;;;;;;6.67;6.67;;;;;-147.14;100.00;58812.66;6242545;22;45674;-58
2023/01/17 15:41:51;;;;;;;;;11.33;9.33;;;;;-147.14;100.00;58812.66;6192254;22;45338;-59
2023/01/17 15:44:28;;;;;;;;;13.00;12.00;;;;;-147.14;100.00;58812.66;6244371;22;45392;-58
2023/01/17 15:46:54;;;;;;;;;12.67;11.00;;;;;-147.14;100.00;58812.66;6243730;22;46886;-58
2023/01/17 15:49:25;;;;;;;;;14.33;12.67;;;;;-147.14;100.00;58812.66;6245014;22;45355;-58
2023/01/17 15:51:52;;;;;;;;;16.33;13.33;;;;;-147.14;100.00;58812.66;6244487;22;45206;-58
2023/01/17 15:54:28;;;;;;;;;10.00;9.00;;;;;-147.14;100.00;58812.66;6242666;22;45346;-59
2023/01/17 15:57:04;;;;;;;;;12.00;10.33;;;;;-147.14;100.00;58812.66;6244418;22;46150;-59
2023/01/17 16:00:00;;;;;;;;;14.00;11.67;;;;;-147.14;100.00;58812.66;6244504;22;45301;-59
2023/01/17 16:02:39;;;;;;;;;15.00;13.00;;;;;-147.14;100.00;58812.66;6230618;22;45587;-58
2023/01/17 16:05:23;;;;;;;;;10.00;10.00;;;;;-147.14;100.00;58812.66;6243199;22;45287;-59
2023/01/17 16:07:53;;;;;;;;;13.00;8.00;;;;;-147.14;100.00;58812.66;6242975;22;46129;-58
2023/01/17 16:10:27;;;;;;;;;13.33;10.33;;;;;-147.14;100.00;58812.66;6244462;22;45436;-58
2023/01/17 16:12:54;;;;;;;;;18.33;14.67;;;;;-147.14;100.00;58812.66;6243850;22;45344;-58
2023/01/17 16:15:22;;;;;;;;;14.00;14.00;;;;;-147.14;100.00;58812.66;6242631;22;45426;-57
2023/01/17 16:17:50;;;;;;;;;13.00;10.00;;;;;-147.14;100.00;58812.66;6244194;22;46259;-58
2023/01/17 16:20:19;;;;;;;;;12.33;11.33;;;;;-147.14;100.00;58812.66;6243511;22;45176;-58
2023/01/17 16:22:45;;;;;;;;;15.00;9.67;;;;;-147.14;100.00;58812.66;6217641;22;45364;-59
2023/01/17 16:25:18;;;;;;;;;14.33;10.33;;;;;-147.14;100.00;58812.66;6244072;22;45272;-59
2023/01/17 16:27:44;;;;;;;;;13.67;13.67;;;;;-147.14;100.00;58812.66;6242799;22;46153;-57
2023/01/17 16:30:15;;;;;;;;;10.33;8.33;;;;;-147.14;100.00;58812.66;6243266;22;45449;-58
2023/01/17 16:32:41;;;;;;;;;14.00;9.67;;;;;-147.14;100.00;58812.66;6216909;22;45338;-59
2023/01/17 16:35:17;;;;;;;;;10.33;9.00;;;;;-147.14;100.00;58812.66;6243567;22;45745;-59
2023/01/17 16:37:43;;;;;;;;;13.33;10.00;;;;;-147.14;100.00;58812.66;6243972;22;46408;-59
2023/01/17 16:40:10;;;;;;;;;7.00;7.00;;;;;-147.14;100.00;58812.66;6243670;22;45320;-56
2023/01/17 16:42:35;;;;;;;;;16.33;14.00;;;;;-147.14;100.00;58812.66;6243623;22;45561;-60
2023/01/17 16:45:00;;;;;;;;;10.67;9.33;;;;;-147.14;100.00;58812.66;6242456;22;62214;-58
2023/01/17 16:47:26;;;;;;;;;13.33;10.00;;;;;-147.14;100.00;58812.66;6242612;22;69135;-59
2023/01/17 16:49:52;;;;;;;;;12.67;12.67;;;;;-147.14;100.00;58812.66;6242919;22;63695;-60
2023/01/17 16:52:17;;;;;;;;;27.67;12.33;;;;;-147.14;100.00;58812.66;6243393;22;45300;-60
2023/01/17 16:54:42;;;;;;;;;14.33;12.00;;;;;-147.14;100.00;58812.66;6244217;22;45231;-59